Time;durP1;ratioP1;P1;durP2;ratioP2;P2;SDS_P1;SDS_P2;PMS_P1;PMS_P2;Temp;Humidity;BMP_temperature;BMP_pressure;BME280_temperature;BME280_humidity;BME280_pressure;Samples;Min_cycle;Max_cycle;Signal;HPM_P1;HPM_P2
2022/09/20 00:01:19;;;;;;;4.97;2.00;;;;;;;23.51;46.81;101018.16;5013118;28;20401;-75
2022/09/20 00:03:53;;;;;;;3.72;2.00;;;;;;;23.51;46.78;101020.88;5013178;28;20049;-75
2022/09/20 00:06:23;;;;;;;2.20;1.70;;;;;;;23.51;46.84;101023.56;5012853;28;20052;-75
2022/09/20 00:08:50;;;;;;;6.70;2.03;;;;;;;23.51;46.93;101028.97;5012947;28;20042;-75
2022/09/20 00:11:22;;;;;;;4.07;1.92;;;;;;;23.51;46.60;101028.97;5012550;28;20416;-75
2022/09/20 00:13:51;;;;;;;5.90;2.30;;;;;;;23.52;46.60;101027.13;5012727;28;20042;-75
2022/09/20 00:16:22;;;;;;;3.28;2.10;;;;;;;23.51;46.82;101026.28;5012980;28;20046;-75
2022/09/20 00:18:51;;;;;;;2.55;1.88;;;;;;;23.51;46.85;101025.44;5009900;28;20049;-75
2022/09/20 00:21:22;;;;;;;3.10;1.80;;;;;;;23.49;46.47;101025.56;4993092;28;20039;-75
2022/09/20 00:23:51;;;;;;;7.28;2.08;;;;;;;23.50;46.71;101021.88;4993451;28;20079;-75
2022/09/20 00:26:19;;;;;;;3.70;1.63;;;;;;;23.49;46.80;101032.84;4992844;28;20047;-75
2022/09/20 00:28:46;;;;;;;3.05;2.08;;;;;;;23.50;46.78;101043.50;5000930;28;20053;-76
2022/09/20 00:31:14;;;;;;;4.20;2.13;;;;;;;23.49;46.47;101039.06;5116077;28;20043;-75
2022/09/20 00:36:29;;;;;;;2.80;2.10;;;;;;;23.50;46.72;101031.81;5115911;28;20052;-75
2022/09/20 00:38:58;;;;;;;3.88;2.10;;;;;;;23.50;46.52;101039.94;5115990;28;20059;-75
2022/09/20 00:41:27;;;;;;;3.00;2.00;;;;;;;23.49;46.74;101044.47;5043309;28;20046;-75
2022/09/20 00:43:54;;;;;;;3.00;2.15;;;;;;;23.50;46.56;101042.63;5012200;28;20042;-76
2022/09/20 00:46:36;;;;;;;2.88;2.08;;;;;;;23.48;46.83;101044.66;5012371;28;20050;-75
2022/09/20 00:49:19;;;;;;;2.95;2.10;;;;;;;23.48;46.67;101034.69;5012751;28;20049;-75
2022/09/20 00:51:51;;;;;;;2.55;2.22;;;;;;;23.48;46.81;101039.25;5012142;28;20057;-76
2022/09/20 00:54:20;;;;;;;2.80;2.00;;;;;;;23.49;46.61;101043.63;5012049;28;20050;-75
2022/09/20 00:56:48;;;;;;;5.05;2.13;;;;;;;23.49;46.81;101035.53;5012955;28;20054;-75
2022/09/20 00:59:26;;;;;;;3.63;2.20;;;;;;;23.47;46.76;101046.50;5012111;28;20046;-76
2022/09/20 01:01:59;;;;;;;2.60;2.08;;;;;;;23.47;46.76;101043.81;5010702;28;20054;-75
2022/09/20 01:04:28;;;;;;;3.10;2.15;;;;;;;23.47;46.68;101043.81;5012065;28;20050;-76
2022/09/20 01:07:01;;;;;;;3.53;2.08;;;;;;;23.47;46.71;101033.00;5012139;28;20445;-75
2022/09/20 01:09:28;;;;;;;2.95;2.17;;;;;;;23.47;46.44;101033.00;5010601;28;20409;-75
2022/09/20 01:12:00;;;;;;;4.97;2.28;;;;;;;23.48;46.87;101041.94;5011916;28;20424;-75
2022/09/20 01:14:28;;;;;;;3.83;2.45;;;;;;;23.47;46.58;101034.84;5072164;28;20047;-75
2022/09/20 01:17:01;;;;;;;3.42;2.17;;;;;;;23.47;46.79;101041.09;5115367;28;20055;-76
2022/09/20 01:20:03;;;;;;;4.10;2.00;;;;;;;23.47;46.64;101038.41;5074218;28;20042;-75
2022/09/20 01:22:54;;;;;;;3.80;1.90;;;;;;;23.46;46.72;101042.13;5051948;28;20394;-76
2022/09/20 01:25:59;;;;;;;2.95;1.95;;;;;;;23.47;46.59;101042.97;5052005;28;20045;-75
2022/09/20 01:28:28;;;;;;;3.15;1.92;;;;;;;23.45;46.78;101049.34;5051995;28;20049;-75
2022/09/20 01:31:19;;;;;;;2.50;1.80;;;;;;;23.47;46.63;101048.38;5052323;28;20060;-75
2022/09/20 01:33:58;;;;;;;3.35;2.03;;;;;;;23.45;46.59;101048.50;5052183;28;20067;-75
2022/09/20 01:36:33;;;;;;;4.13;2.30;;;;;;;23.45;46.50;101059.31;5052233;28;20057;-75
2022/09/20 01:39:09;;;;;;;2.53;1.80;;;;;;;23.45;46.92;101048.50;5051197;28;20072;-75
2022/09/20 01:41:55;;;;;;;3.65;1.95;;;;;;;23.45;46.81;101056.59;5044573;28;20065;-75
2022/09/20 01:44:55;;;;;;;3.00;2.13;;;;;;;23.45;46.64;101059.31;5033290;28;20072;-75
2022/09/20 01:47:36;;;;;;;6.40;3.47;;;;;;;23.44;46.76;101052.22;5051761;28;20558;-75
2022/09/20 01:50:12;;;;;;;2.72;2.03;;;;;;;23.44;46.52;101054.91;5051762;28;20045;-75
2022/09/20 01:52:49;;;;;;;3.53;2.20;;;;;;;23.43;46.64;101054.06;5051824;28;20064;-75
2022/09/20 01:55:27;;;;;;;3.95;2.10;;;;;;;23.44;46.65;101058.47;5035028;28;20156;-75
2022/09/20 01:58:06;;;;;;;3.47;2.47;;;;;;;23.44;46.46;101068.44;5048292;28;20053;-75
2022/09/20 02:00:52;;;;;;;3.60;2.55;;;;;;;23.43;46.62;101066.72;4991880;28;20050;-76
2022/09/20 02:03:48;;;;;;;2.38;1.65;;;;;;;23.43;46.69;101075.69;4991741;28;20654;-75
2022/09/20 02:06:44;;;;;;;3.22;2.30;;;;;;;23.43;46.78;101069.44;4991930;28;20448;-75
2022/09/20 02:09:30;;;;;;;4.53;2.30;;;;;;;23.43;46.37;101074.84;4991458;28;20051;-75
2022/09/20 02:12:27;;;;;;;3.10;2.10;;;;;;;23.43;46.58;101077.53;4991326;28;20397;-75
2022/09/20 02:15:30;;;;;;;2.75;2.10;;;;;;;23.43;46.76;101080.25;4991335;28;20054;-75
2022/09/20 02:18:44;;;;;;;3.17;2.25;;;;;;;23.41;46.61;101080.38;4990144;28;20508;-75
2022/09/20 02:21:35;;;;;;;8.10;2.42;;;;;;;23.42;46.60;101074.00;4988426;28;20055;-75
2022/09/20 02:24:28;;;;;;;2.53;2.10;;;;;;;23.41;46.61;101071.44;4990061;28;20425;-76
2022/09/20 02:27:17;;;;;;;;;;;;;;;23.42;46.58;101079.41;4991483;28;20053;-75
2022/09/20 02:29:55;;;;;;;4.20;2.13;;;;;;;23.42;46.35;101086.66;5001432;28;19922;-76
2022/09/20 02:32:31;;;;;;;4.18;2.22;;;;;;;23.40;46.53;101086.78;5114041;28;20050;-76
2022/09/20 02:35:31;;;;;;;2.70;2.00;;;;;;;23.41;46.50;101082.22;5112398;28;20055;-75
2022/09/20 02:38:24;;;;;;;4.75;2.00;;;;;;;23.40;46.46;101081.38;5050756;28;20061;-75
2022/09/20 02:41:06;;;;;;;8.32;2.40;;;;;;;23.40;46.61;101081.38;5051645;28;20056;-75
2022/09/20 02:43:51;;;;;;;2.67;2.00;;;;;;;23.40;46.45;101084.09;5049790;28;20041;-75
2022/09/20 02:46:29;;;;;;;4.20;2.22;;;;;;;23.40;46.65;101094.91;5051073;28;20053;-75
2022/09/20 02:49:18;;;;;;;3.85;2.20;;;;;;;23.38;46.71;101086.09;5050824;28;20468;-75
2022/09/20 02:51:55;;;;;;;3.40;2.30;;;;;;;23.40;46.46;101088.66;5054617;28;20504;-75
2022/09/20 02:54:44;;;;;;;3.00;2.20;;;;;;;23.41;46.35;101093.03;5054982;28;20065;-75
2022/09/20 02:57:20;;;;;;;4.40;2.22;;;;;;;23.40;46.50;101096.75;5055358;28;20060;-76
2022/09/20 02:59:57;;;;;;;3.47;2.28;;;;;;;23.40;46.68;101104.84;5054956;28;20057;-75
2022/09/20 03:02:50;;;;;;;2.55;2.00;;;;;;;23.39;46.54;101104.00;5054934;28;20065;-75
2022/09/20 03:05:22;;;;;;;3.63;2.30;;;;;;;23.40;46.60;101102.16;5054991;28;20429;-76
2022/09/20 03:07:58;;;;;;;2.33;1.85;;;;;;;23.39;46.55;101108.56;5054991;28;20057;-75
2022/09/20 03:10:49;;;;;;;3.10;2.10;;;;;;;23.39;46.46;101105.88;5054858;28;20060;-75
2022/09/20 03:13:42;;;;;;;2.95;2.03;;;;;;;23.38;46.76;101110.41;5054966;28;20425;-75
2022/09/20 03:16:18;;;;;;;3.13;2.30;;;;;;;23.38;46.69;101113.13;5105498;28;20047;-75
2022/09/20 03:18:55;;;;;;;3.25;2.28;;;;;;;23.38;46.73;101106.88;5106757;28;20054;-75
2022/09/20 03:22:03;;;;;;;4.20;2.25;;;;;;;23.39;46.46;101113.97;5013405;28;20057;-75
2022/09/20 03:25:01;;;;;;;3.78;2.28;;;;;;;23.38;46.70;101114.97;5054242;28;20052;-75
2022/09/20 03:27:35;;;;;;;4.10;2.35;;;;;;;23.37;46.80;101110.56;5054358;28;20111;-75
2022/09/20 03:30:17;;;;;;;3.05;1.92;;;;;;;23.38;46.82;101106.88;5054561;28;20055;-75
2022/09/20 03:32:54;;;;;;;4.07;2.40;;;;;;;23.39;46.50;101108.56;5054703;28;20053;-75
2022/09/20 03:35:58;;;;;;;3.78;2.30;;;;;;;23.36;46.61;101107.00;5054048;28;20049;-75
2022/09/20 03:38:51;;;;;;;3.85;2.33;;;;;;;23.36;46.75;101109.72;5054208;28;20064;-76
2022/09/20 03:41:43;;;;;;;2.92;2.13;;;;;;;23.36;46.71;101120.50;5037852;28;20412;-75
2022/09/20 03:44:47;;;;;;;3.60;2.10;;;;;;;23.36;46.68;101119.66;5053081;28;20519;-75
2022/09/20 03:47:32;;;;;;;2.47;1.88;;;;;;;23.37;46.65;101110.56;5025320;28;20091;-74
2022/09/20 03:50:18;;;;;;;6.35;2.67;;;;;;;23.36;46.93;101108.88;5054479;28;20056;-75
2022/09/20 03:52:56;;;;;;;2.83;1.92;;;;;;;23.36;46.66;101104.31;5053914;28;20052;-76
2022/09/20 03:55:44;;;;;;;3.72;2.42;;;;;;;23.37;46.73;101111.41;5054588;28;20053;-75
2022/09/20 03:58:49;;;;;;;3.42;2.15;;;;;;;23.36;46.84;101109.72;5035006;28;20059;-75
2022/09/20 04:01:41;;;;;;;5.25;2.42;;;;;;;23.36;46.77;101101.59;4993369;28;20042;-75
2022/09/20 04:04:33;;;;;;;3.38;2.38;;;;;;;23.36;46.85;101098.06;4991585;28;20058;-77
2022/09/20 04:07:08;;;;;;;4.38;2.65;;;;;;;23.36;46.93;101093.50;4993610;28;20057;-75
2022/09/20 04:09:38;;;;;;;6.10;2.47;;;;;;;23.36;46.87;101087.25;4993943;28;20050;-75
2022/09/20 04:12:41;;;;;;;4.10;2.35;;;;;;;23.35;46.73;101086.41;4993448;28;20050;-76
2022/09/20 04:15:37;;;;;;;3.07;2.00;;;;;;;23.35;46.95;101085.56;5020716;28;20070;-76
2022/09/20 04:18:13;;;;;;;3.58;2.35;;;;;;;23.36;46.95;101087.25;4993342;28;20046;-76
2022/09/20 04:21:07;;;;;;;3.13;1.90;;;;;;;23.35;46.94;101094.50;5010453;28;20400;-75
2022/09/20 04:24:01;;;;;;;4.38;2.03;;;;;;;23.34;46.89;101098.22;5012317;27;20046;-75
2022/09/20 04:26:31;;;;;;;4.03;2.67;;;;;;;23.36;46.72;101098.06;5012609;28;20046;-75
2022/09/20 04:29:07;;;;;;;4.10;2.10;;;;;;;23.35;46.74;101101.78;5012954;28;20069;-75
2022/09/20 04:31:49;;;;;;;2.80;2.20;;;;;;;23.35;46.96;101104.47;5076242;28;20048;-75
2022/09/20 04:37:40;;;;;;;3.47;2.45;;;;;;;23.34;46.80;101103.63;5115813;28;20379;-75
2022/09/20 04:40:30;;;;;;;3.65;2.10;;;;;;;23.34;46.80;101106.31;5116395;28;20078;-76
2022/09/20 04:43:06;;;;;;;3.85;2.33;;;;;;;23.34;46.94;101108.19;5115588;28;20044;-75
2022/09/20 04:46:11;;;;;;;4.10;2.53;;;;;;;23.33;46.72;101112.72;5036139;28;20053;-76
2022/09/20 04:49:03;;;;;;;2.95;2.28;;;;;;;23.34;46.86;101116.28;5012203;28;20393;-75
2022/09/20 04:51:50;;;;;;;7.18;2.55;;;;;;;23.32;46.96;101104.75;5012166;28;20042;-75
2022/09/20 04:54:56;;;;;;;7.30;2.55;;;;;;;23.32;46.88;101110.16;5012441;28;20052;-76
2022/09/20 04:57:36;;;;;;;4.28;2.50;;;;;;;23.33;46.94;101109.16;5012013;28;20050;-75
2022/09/20 05:00:16;;;;;;;3.55;2.17;;;;;;;23.32;46.89;101110.16;5012079;28;20050;-75
2022/09/20 05:02:46;;;;;;;2.72;2.20;;;;;;;23.32;46.79;101115.56;5011822;28;20048;-75
2022/09/20 05:05:40;;;;;;;4.30;2.42;;;;;;;23.32;46.64;101123.69;5012347;28;20042;-75
2022/09/20 05:08:20;;;;;;;3.53;2.38;;;;;;;23.32;46.81;101129.94;5012299;28;20054;-75
2022/09/20 05:11:09;;;;;;;3.42;2.20;;;;;;;23.31;46.71;101124.69;5011891;28;20417;-75
2022/09/20 05:13:59;;;;;;;3.13;1.95;;;;;;;23.30;46.62;101126.53;5011059;28;20046;-75
2022/09/20 05:17:05;;;;;;;3.17;2.33;;;;;;;23.30;46.78;101133.78;5063452;28;20074;-76
2022/09/20 05:19:54;;;;;;;2.88;2.10;;;;;;;23.29;46.75;101140.19;5071033;28;20390;-75
2022/09/20 05:22:25;;;;;;;3.53;2.20;;;;;;;23.30;46.72;101145.44;5010241;28;20053;-76
2022/09/20 05:25:18;;;;;;;5.47;2.33;;;;;;;23.29;46.88;101145.59;5011859;28;20378;-75
2022/09/20 05:27:56;;;;;;;3.35;2.40;;;;;;;23.29;46.84;101141.03;5034880;28;20064;-75
2022/09/20 05:30:42;;;;;;;3.97;2.80;;;;;;;23.28;46.88;101133.09;5052507;28;20404;-76
2022/09/20 05:33:24;;;;;;;5.40;2.72;;;;;;;23.29;46.75;101134.78;5019386;28;20060;-75
2022/09/20 05:36:29;;;;;;;2.20;1.67;;;;;;;23.28;46.63;101141.19;5052007;28;20041;-75
2022/09/20 05:39:26;;;;;;;5.10;2.30;;;;;;;23.28;46.81;101143.88;5051819;28;20060;-75
2022/09/20 05:41:59;;;;;;;3.72;2.60;;;;;;;23.28;46.89;101143.88;5034938;28;20504;-75
2022/09/20 05:44:44;;;;;;;3.80;2.47;;;;;;;23.28;46.72;101146.59;5052147;28;20057;-75
2022/09/20 05:47:23;;;;;;;3.55;2.30;;;;;;;23.27;46.68;101143.03;5030605;28;20049;-75
2022/09/20 05:50:12;;;;;;;4.00;2.10;;;;;;;23.28;46.89;101146.59;5031679;28;20432;-76
2022/09/20 05:52:50;;;;;;;2.88;1.65;;;;;;;23.27;46.69;101150.28;5031849;28;20065;-75
2022/09/20 05:55:38;;;;;;;5.25;2.28;;;;;;;23.27;46.97;101148.44;5031760;28;20050;-75
2022/09/20 05:58:44;;;;;;;3.63;2.10;;;;;;;23.27;46.75;101155.69;5032079;28;20061;-75
2022/09/20 06:01:21;;;;;;;4.35;2.33;;;;;;;23.27;46.88;101159.25;5031791;28;20046;-75
2022/09/20 06:04:07;;;;;;;4.07;2.30;;;;;;;23.27;46.83;101155.69;5026618;28;20041;-75
2022/09/20 06:06:53;;;;;;;3.67;2.40;;;;;;;23.28;46.79;101160.09;4991673;28;20054;-75
2022/09/20 06:09:23;;;;;;;2.85;2.10;;;;;;;23.27;46.92;101164.66;4991875;28;20057;-75
2022/09/20 06:12:00;;;;;;;4.38;2.50;;;;;;;23.28;46.93;101162.78;4991474;28;20050;-75
2022/09/20 06:14:46;;;;;;;3.15;2.10;;;;;;;23.27;46.97;101159.25;4991382;28;20042;-75
2022/09/20 06:17:19;;;;;;;5.57;2.53;;;;;;;23.26;47.02;101162.97;4991751;28;20050;-74
2022/09/20 06:20:07;;;;;;;4.10;2.45;;;;;;;23.26;46.90;101168.38;5001305;28;20046;-74
2022/09/20 06:22:44;;;;;;;5.07;2.40;;;;;;;23.27;46.85;101171.91;5011004;28;20054;-75
2022/09/20 06:25:35;;;;;;;3.47;2.10;;;;;;;23.26;46.42;101178.31;5010474;28;20066;-75
2022/09/20 06:28:03;;;;;;;2.80;2.30;;;;;;;23.24;46.01;101175.75;5017254;28;20069;-75
2022/09/20 06:30:35;;;;;;;3.47;2.55;;;;;;;23.23;46.11;101174.06;5009812;28;20052;-75
2022/09/20 06:33:16;;;;;;;6.00;2.78;;;;;;;23.21;45.88;101181.44;5010802;28;20436;-75
2022/09/20 06:42:20;;;;;;;5.13;2.92;;;;;;;23.14;45.97;101180.34;5011426;28;20050;-75
2022/09/20 06:44:53;;;;;;;5.10;2.60;;;;;;;23.11;46.25;101180.66;5011035;28;20042;-74
2022/09/20 06:47:21;;;;;;;7.15;2.63;;;;;;;23.10;46.32;101189.75;5011050;28;20050;-76
2022/09/20 06:49:49;;;;;;;5.55;2.45;;;;;;;23.08;46.38;101192.59;5009402;28;20050;-78
2022/09/20 06:52:21;;;;;;;7.32;3.50;;;;;;;23.10;46.76;101197.84;5021572;28;20053;-74
2022/09/20 06:54:52;;;;;;;5.53;2.75;;;;;;;23.08;46.64;101192.59;5113901;28;20046;-75
2022/09/20 06:57:29;;;;;;;5.05;2.40;;;;;;;23.07;46.73;101196.28;5113555;28;20047;-75
2022/09/20 06:59:56;;;;;;;19.85;3.10;;;;;;;23.06;46.87;101197.28;5114826;28;20055;-76
2022/09/20 07:02:23;;;;;;;13.20;2.70;;;;;;;23.09;46.96;101206.94;5115225;28;20044;-74
2022/09/20 07:04:58;;;;;;;7.72;3.00;;;;;;;23.07;47.09;101207.09;5114519;28;20048;-76
2022/09/20 07:07:25;;;;;;;8.85;2.83;;;;;;;23.09;46.94;101212.34;5114918;28;20052;-75
2022/09/20 07:09:52;;;;;;;5.03;2.67;;;;;;;23.08;47.01;101203.38;5114260;28;20384;-75
2022/09/20 07:12:20;;;;;;;5.32;2.53;;;;;;;23.09;46.84;101213.22;5114231;28;20410;-75
2022/09/20 07:14:49;;;;;;;6.28;2.83;;;;;;;23.08;47.02;101208.78;5114021;28;20036;-75
2022/09/20 07:17:16;;;;;;;5.30;2.72;;;;;;;23.08;47.22;101219.59;5113949;28;20043;-75
2022/09/20 07:19:43;;;;;;;6.43;2.70;;;;;;;23.10;47.15;101216.75;5114070;28;20044;-75
2022/09/20 07:22:11;;;;;;;5.28;2.65;;;;;;;23.11;47.32;101221.16;5113470;28;20055;-75
2022/09/20 07:24:40;;;;;;;8.48;2.75;;;;;;;23.09;47.45;101215.91;5113576;28;20406;-75
2022/09/20 07:27:10;;;;;;;4.93;2.20;;;;;;;23.10;47.45;101220.31;5113113;28;20044;-75
2022/09/20 07:29:37;;;;;;;9.77;2.90;;;;;;;23.11;47.54;101213.06;5113450;28;20406;-75
2022/09/20 07:32:04;;;;;;;7.05;2.67;;;;;;;23.10;47.71;101223.00;5113364;28;20043;-75
2022/09/20 07:34:32;;;;;;;5.45;2.38;;;;;;;23.11;47.42;101227.41;5113195;28;20051;-75
2022/09/20 07:36:59;;;;;;;3.95;2.20;;;;;;;23.11;47.58;101226.56;5115877;28;20058;-75
2022/09/20 07:39:26;;;;;;;6.45;2.50;;;;;;;23.13;47.83;101229.94;5117999;28;20403;-75
2022/09/20 07:41:54;;;;;;;6.47;2.25;;;;;;;23.12;47.87;101234.50;5117505;28;20046;-75
2022/09/20 07:44:24;;;;;;;5.40;2.55;;;;;;;23.14;47.67;101226.28;5117442;28;20074;-75
2022/09/20 07:46:54;;;;;;;7.97;2.20;;;;;;;23.15;47.83;101227.97;5117379;28;20406;-75
2022/09/20 07:49:23;;;;;;;5.90;2.05;;;;;;;23.15;47.99;101231.50;5118134;28;20386;-75
2022/09/20 07:51:51;;;;;;;6.97;2.30;;;;;;;23.15;48.18;101231.50;5117069;28;20051;-75
2022/09/20 07:54:20;;;;;;;7.72;2.25;;;;;;;23.16;48.18;101233.22;5116722;28;20052;-75
2022/09/20 07:56:47;;;;;;;6.57;2.30;;;;;;;23.16;48.11;101230.50;5116974;28;20047;-75
2022/09/20 07:59:14;;;;;;;6.10;2.03;;;;;;;23.16;48.33;101241.31;5117102;28;20046;-75
2022/09/20 08:01:42;;;;;;;6.85;2.10;;;;;;;23.18;48.86;101249.28;5117258;28;20047;-76
2022/09/20 08:04:10;;;;;;;5.68;2.10;;;;;;;23.17;48.97;101247.56;5117461;28;20052;-76
2022/09/20 08:06:39;;;;;;;6.53;2.33;;;;;;;23.17;49.39;101251.13;5117177;28;20047;-76
2022/09/20 08:09:07;;;;;;;7.35;2.10;;;;;;;23.18;51.50;101246.59;5117280;28;20388;-76
2022/09/20 08:11:39;;;;;;;5.75;2.15;;;;;;;23.18;50.56;101249.28;5117171;28;20051;-76
2022/09/20 08:14:12;;;;;;;5.53;1.88;;;;;;;23.18;50.11;101252.00;5116947;28;20070;-75
2022/09/20 08:16:45;;;;;;;4.35;2.00;;;;;;;23.18;51.29;101252.84;5117422;28;20048;-75
2022/09/20 08:19:21;;;;;;;6.25;2.42;;;;;;;23.18;51.62;101260.94;5117070;28;20054;-75
2022/09/20 08:21:52;;;;;;;4.18;2.50;;;;;;;23.20;52.08;101261.63;5116855;28;20043;-75
2022/09/20 08:24:20;;;;;;;7.47;2.67;;;;;;;23.19;49.94;101256.38;5116753;28;20051;-76
2022/09/20 08:26:47;;;;;;;6.53;2.50;;;;;;;23.07;49.11;101266.50;5117296;28;20050;-76
2022/09/20 08:29:15;;;;;;;7.25;3.47;;;;;;;22.76;49.56;101267.66;5116775;28;20043;-75
2022/09/20 08:31:43;;;;;;;7.15;2.63;;;;;;;22.57;50.07;101255.91;5116897;28;20521;-76
2022/09/20 08:34:12;;;;;;;11.25;2.80;;;;;;;22.52;50.45;101260.84;5116651;28;20044;-75
2022/09/20 08:36:46;;;;;;;7.20;2.53;;;;;;;22.49;50.83;101271.09;5116651;28;20039;-76
2022/09/20 08:39:14;;;;;;;8.60;3.15;;;;;;;22.46;51.37;101267.69;5116687;28;20044;-76
2022/09/20 08:42:26;;;;;;;4.35;2.40;;;;;;;22.51;53.19;101266.41;5116530;28;20043;-76
2022/09/20 08:44:59;;;;;;;6.00;2.35;;;;;;;22.55;52.95;101265.97;5116656;28;20048;-76
2022/09/20 08:47:34;;;;;;;5.47;2.22;;;;;;;22.61;52.02;101272.66;5117132;28;20043;-76
2022/09/20 08:50:04;;;;;;;6.30;2.42;;;;;;;22.64;52.52;101267.81;5116286;28;20044;-76
2022/09/20 08:52:38;;;;;;;6.35;2.30;;;;;;;22.68;53.54;101258.44;5116036;28;20376;-75
2022/09/20 08:55:20;;;;;;;5.50;2.45;;;;;;;22.73;54.24;101263.41;5116211;28;20040;-76
2022/09/20 08:57:54;;;;;;;5.57;2.20;;;;;;;22.77;55.05;101263.94;5116438;28;20047;-76
2022/09/20 09:00:29;;;;;;;3.72;1.88;;;;;;;22.80;55.82;101264.53;5055062;28;20409;-75
2022/09/20 09:02:59;;;;;;;3.72;1.83;;;;;;;22.84;53.92;101267.78;5013116;28;20056;-76
2022/09/20 09:05:32;;;;;;;3.97;2.05;;;;;;;22.86;55.12;101265.81;5012722;28;20053;-75
2022/09/20 09:08:20;;;;;;;3.58;2.08;;;;;;;22.88;55.77;101266.50;5012187;28;20046;-76
2022/09/20 09:10:53;;;;;;;4.07;2.17;;;;;;;22.89;55.77;101265.53;5012226;28;20050;-76
2022/09/20 09:13:42;;;;;;;6.07;2.22;;;;;;;22.90;54.10;101268.09;5012527;28;20046;-76
2022/09/20 09:16:14;;;;;;;5.03;2.38;;;;;;;22.91;53.35;101259.00;5012790;28;20381;-76
2022/09/20 09:18:50;;;;;;;6.05;2.17;;;;;;;22.93;53.86;101261.56;5013143;28;20046;-76
2022/09/20 09:21:23;;;;;;;5.30;1.98;;;;;;;22.94;54.92;101257.88;5012874;28;20049;-76
2022/09/20 09:23:59;;;;;;;6.72;2.38;;;;;;;22.95;54.62;101257.72;5010653;28;20057;-77
2022/09/20 09:26:34;;;;;;;6.95;2.25;;;;;;;22.95;55.08;101254.16;5012932;28;20473;-77
2022/09/20 09:29:23;;;;;;;4.35;2.00;;;;;;;22.96;55.00;101250.47;5012881;28;20050;-77
2022/09/20 09:31:53;;;;;;;6.05;2.65;;;;;;;22.97;53.11;101260.28;5012059;28;20038;-76
2022/09/20 09:34:37;;;;;;;4.93;2.38;;;;;;;22.97;52.36;101256.72;5011406;28;20054;-77
2022/09/20 09:37:04;;;;;;;5.93;2.45;;;;;;;22.98;54.05;101253.03;5012218;28;20046;-77
2022/09/20 09:39:36;;;;;;;3.22;2.05;;;;;;;22.98;54.85;101248.47;5014634;28;20050;-77
2022/09/20 09:42:22;;;;;;;3.50;2.00;;;;;;;22.99;55.14;101255.59;5031514;28;20046;-77
2022/09/20 09:44:50;;;;;;;4.88;2.45;;;;;;;22.99;54.90;101252.88;5032171;28;20057;-77
2022/09/20 09:47:36;;;;;;;4.95;2.15;;;;;;;22.99;54.50;101252.88;5030113;28;20046;-77
2022/09/20 09:50:04;;;;;;;3.70;2.28;;;;;;;22.99;54.77;101252.88;5031782;28;20045;-76
2022/09/20 09:52:36;;;;;;;6.15;2.80;;;;;;;22.98;52.65;101245.78;5031796;28;20473;-76
2022/09/20 09:55:03;;;;;;;3.40;2.05;;;;;;;22.97;52.37;101237.81;5031646;28;20053;-76
2022/09/20 09:57:35;;;;;;;3.42;2.30;;;;;;;22.96;52.83;101242.38;5030058;28;20056;-76
2022/09/20 10:00:15;;;;;;;4.85;2.40;;;;;;;22.99;53.69;101233.97;5030511;28;20411;-76
2022/09/20 10:03:03;;;;;;;3.63;2.08;;;;;;;23.00;54.64;101234.81;5031650;28;20053;-76
2022/09/20 10:05:33;;;;;;;4.18;2.00;;;;;;;22.99;55.27;101231.28;5029997;28;20050;-75
2022/09/20 10:08:30;;;;;;;4.25;2.25;;;;;;;23.00;55.23;101230.28;5029899;28;20061;-75
2022/09/20 10:11:20;;;;;;;3.85;2.00;;;;;;;22.99;55.26;101225.88;5039539;28;20069;-75
2022/09/20 10:14:16;;;;;;;5.68;2.17;;;;;;;22.99;55.65;101223.19;5031121;28;20064;-75
2022/09/20 10:16:50;;;;;;;4.07;2.20;;;;;;;22.99;55.72;101220.47;5031357;28;20049;-75
2022/09/20 10:19:41;;;;;;;4.20;2.10;;;;;;;23.00;54.87;101222.16;5030185;28;20049;-75
2022/09/20 10:22:45;;;;;;;3.97;2.00;;;;;;;23.01;55.47;101223.91;5031321;28;20050;-76
2022/09/20 10:25:35;;;;;;;6.63;2.27;;;;;;;23.01;55.46;101220.31;5031347;28;20053;-76
2022/09/20 10:28:11;;;;;;;4.22;2.03;;;;;;;23.01;55.77;101212.22;5030117;28;20038;-75
2022/09/20 10:31:34;;;;;;;3.83;1.98;;;;;;;23.01;55.78;101207.69;5031341;28;20046;-77
2022/09/20 10:34:25;;;;;;;6.85;2.38;;;;;;;23.00;56.05;101205.97;5071873;28;20060;-76
2022/09/20 10:36:56;;;;;;;3.85;2.00;;;;;;;23.00;55.56;101211.38;5072295;28;20049;-76
2022/09/20 10:39:47;;;;;;;3.95;2.10;;;;;;;23.00;55.37;101205.13;5055386;28;20056;-76
2022/09/20 10:45:22;;;;;;;5.43;2.05;;;;;;;23.00;55.04;101214.06;5054658;28;20055;-76
2022/09/20 10:48:16;;;;;;;3.78;2.15;;;;;;;23.00;54.56;101203.28;5071808;28;20190;-76
2022/09/20 10:50:50;;;;;;;4.15;2.10;;;;;;;23.00;54.98;101213.22;5071707;28;20049;-76
2022/09/20 10:53:38;;;;;;;6.65;2.22;;;;;;;23.00;54.97;101205.13;5071845;28;20476;-76
2022/09/20 10:56:29;;;;;;;4.72;2.30;;;;;;;23.00;53.78;101202.44;5071442;28;20055;-75
2022/09/20 10:59:37;;;;;;;7.20;2.20;;;;;;;22.97;54.33;101203.59;5071804;28;20049;-76
2022/09/20 11:02:21;;;;;;;2.78;2.03;;;;;;;22.98;54.18;101199.03;5071651;28;20059;-76
2022/09/20 11:05:31;;;;;;;4.45;1.92;;;;;;;22.97;54.03;101203.59;5071498;28;20499;-76
2022/09/20 11:08:04;;;;;;;4.97;2.58;;;;;;;22.99;55.06;101206.13;5048405;28;20065;-76
2022/09/20 11:10:44;;;;;;;4.80;2.17;;;;;;;22.97;54.10;101198.19;5029425;28;20063;-76
2022/09/20 11:13:29;;;;;;;3.53;2.08;;;;;;;22.97;54.52;101195.50;5033118;28;20059;-76
2022/09/20 11:16:04;;;;;;;12.32;2.80;;;;;;;22.95;55.08;101190.22;5034208;28;20045;-76
2022/09/20 11:18:37;;;;;;;4.70;1.90;;;;;;;22.96;55.05;101188.38;5034051;28;20150;-75
2022/09/20 11:21:27;;;;;;;3.63;2.05;;;;;;;22.97;54.90;101191.91;5032484;28;20385;-76
2022/09/20 11:24:04;;;;;;;5.60;2.40;;;;;;;22.94;54.15;101185.81;5033975;28;20045;-76
2022/09/20 11:26:43;;;;;;;5.32;2.55;;;;;;;22.95;53.05;101186.66;5032461;28;20046;-76
2022/09/20 11:29:26;;;;;;;3.63;2.75;;;;;;;22.93;53.62;101180.59;5033960;28;20053;-76
2022/09/20 11:32:17;;;;;;;3.42;2.20;;;;;;;22.93;53.41;101175.19;5033725;28;20045;-76
2022/09/20 11:34:56;;;;;;;4.25;2.15;;;;;;;22.92;53.60;101166.19;5033491;28;20065;-76
2022/09/20 11:37:29;;;;;;;4.13;2.30;;;;;;;22.93;53.77;101175.19;5033980;28;20041;-76
2022/09/20 11:40:08;;;;;;;5.60;2.38;;;;;;;22.91;54.33;101167.22;5033973;28;20052;-78
2022/09/20 11:42:40;;;;;;;8.15;4.32;;;;;;;22.91;51.78;101169.06;5033805;28;20049;-75
2022/09/20 11:45:11;;;;;;;7.50;3.38;;;;;;;22.90;53.15;101157.41;5033694;28;20072;-75
2022/09/20 11:47:46;;;;;;;7.35;3.38;;;;;;;22.89;53.69;101162.94;5033189;28;20042;-76
2022/09/20 11:50:31;;;;;;;;;;;;;;;22.87;52.54;101151.44;5033856;28;20044;-76
2022/09/20 11:53:16;;;;;;;4.80;3.00;;;;;;;22.87;51.27;101149.56;5033389;28;19921;-75
2022/09/20 11:55:53;;;;;;;4.57;2.63;;;;;;;22.84;52.28;101135.50;5032047;27;20053;-76
2022/09/20 11:58:21;;;;;;;8.65;3.10;;;;;;;22.84;53.12;101140.91;5033400;28;20049;-77
2022/09/20 12:00:53;;;;;;;3.88;2.50;;;;;;;22.84;52.34;101127.41;5033786;28;20049;-75
2022/09/20 12:03:49;;;;;;;4.73;2.60;;;;;;;22.83;52.70;101140.06;5032059;28;20523;-75
2022/09/20 12:06:34;;;;;;;7.38;3.17;;;;;;;22.82;51.16;101132.13;5033442;28;20045;-75
2022/09/20 12:09:05;;;;;;;5.53;2.63;;;;;;;22.81;52.69;101130.41;5031910;28;20053;-75
2022/09/20 12:11:37;;;;;;;3.45;2.10;;;;;;;22.81;52.71;101120.47;5017877;28;20046;-75
2022/09/20 12:14:17;;;;;;;6.60;2.10;;;;;;;22.79;51.65;101122.47;5013130;28;20056;-75
2022/09/20 12:16:47;;;;;;;7.50;2.88;;;;;;;22.79;51.19;101116.22;5013400;28;20053;-75
2022/09/20 12:19:31;;;;;;;4.07;2.15;;;;;;;22.77;51.43;101115.50;5012902;28;20038;-75
2022/09/20 12:22:02;;;;;;;5.72;2.53;;;;;;;22.75;52.80;101114.81;5011850;28;20516;-75
2022/09/20 12:24:35;;;;;;;5.60;2.47;;;;;;;22.76;53.17;101113.81;5012703;28;20042;-75
2022/09/20 12:27:28;;;;;;;4.40;2.35;;;;;;;22.75;52.43;101107.56;5013348;28;20068;-75
2022/09/20 12:30:20;;;;;;;2.78;2.13;;;;;;;22.74;52.47;101105.03;5027438;28;20061;-76
2022/09/20 12:32:51;;;;;;;5.13;2.08;;;;;;;22.74;52.92;101105.03;5012783;28;20057;-76
2022/09/20 12:35:37;;;;;;;3.25;2.15;;;;;;;22.75;52.58;101098.63;5011551;28;20042;-76
2022/09/20 12:38:20;;;;;;;5.50;2.30;;;;;;;22.75;51.17;101093.22;5012638;28;20053;-76
2022/09/20 12:41:09;;;;;;;5.07;2.10;;;;;;;22.73;51.62;101096.09;5012935;28;20050;-77